createdAt,value
2023-03-27T00:01:05.635Z,6.80
2023-03-27T00:03:41.782Z,7.40
2023-03-27T00:06:18.145Z,7.00
2023-03-27T00:08:52.700Z,6.70
2023-03-27T00:11:28.923Z,7.00
2023-03-27T00:14:03.263Z,8.00
2023-03-27T00:16:37.863Z,7.40
2023-03-27T00:19:12.786Z,7.00
2023-03-27T00:21:47.040Z,7.50
2023-03-27T00:24:21.750Z,6.80
2023-03-27T00:26:56.769Z,7.00
2023-03-27T00:29:30.374Z,6.70
2023-03-27T00:32:03.999Z,8.80
2023-03-27T00:34:38.585Z,8.30
2023-03-27T00:37:14.692Z,7.90
2023-03-27T00:39:50.608Z,8.40
2023-03-27T00:42:25.700Z,8.10
2023-03-27T00:44:59.585Z,7.30
2023-03-27T00:47:36.515Z,7.90
2023-03-27T00:50:14.608Z,8.20
2023-03-27T00:52:54.710Z,8.10
2023-03-27T00:55:32.475Z,7.40
2023-03-27T00:58:09.289Z,7.80
2023-03-27T01:00:43.515Z,8.40
2023-03-27T01:03:21.198Z,7.20
2023-03-27T01:05:56.462Z,8.30
2023-03-27T01:08:34.646Z,8.50
2023-03-27T01:11:16.051Z,7.30
2023-03-27T01:13:59.056Z,9.10
2023-03-27T01:16:39.396Z,9.10
2023-03-27T01:19:53.881Z,8.70
2023-03-27T01:23:14.849Z,9.20
2023-03-27T01:26:19.458Z,9.00
2023-03-27T01:29:15.010Z,7.30
2023-03-27T01:32:09.480Z,8.40
2023-03-27T01:35:01.992Z,9.40
2023-03-27T01:38:03.454Z,8.70
2023-03-27T01:40:39.512Z,9.50
2023-03-27T01:43:16.510Z,8.80
2023-03-27T01:45:52.735Z,9.10
2023-03-27T01:48:32.392Z,9.10
2023-03-27T01:51:10.134Z,9.50
2023-03-27T01:53:47.464Z,8.90
2023-03-27T01:56:27.502Z,8.30
2023-03-27T01:59:05.497Z,8.30
2023-03-27T02:01:44.137Z,7.70
2023-03-27T02:04:21.054Z,8.80
2023-03-27T02:09:30.761Z,9.00
2023-03-27T02:12:08.619Z,8.60
2023-03-27T02:14:45.197Z,8.60
2023-03-27T02:17:26.672Z,9.10
2023-03-27T02:20:10.159Z,8.80
2023-03-27T02:22:44.414Z,9.60
2023-03-27T02:25:31.948Z,11.00
2023-03-27T02:28:20.168Z,10.30
2023-03-27T02:31:06.215Z,10.10
2023-03-27T02:34:06.425Z,10.80
2023-03-27T02:36:43.855Z,11.10
2023-03-27T02:39:25.226Z,11.30
2023-03-27T02:42:03.695Z,10.30
2023-03-27T02:44:47.370Z,9.20
2023-03-27T02:47:26.107Z,10.70
2023-03-27T02:50:03.757Z,9.80
2023-03-27T02:52:40.988Z,10.50
2023-03-27T02:57:51.733Z,9.50
2023-03-27T03:00:29.218Z,8.90
2023-03-27T03:03:08.581Z,9.10
2023-03-27T03:05:43.954Z,8.60
2023-03-27T03:08:17.674Z,9.20
2023-03-27T03:10:51.425Z,7.50
2023-03-27T03:13:27.663Z,7.60
2023-03-27T03:16:01.496Z,6.80
2023-03-27T03:18:35.318Z,8.50
2023-03-27T03:21:10.452Z,8.90
2023-03-27T03:23:57.870Z,8.70
2023-03-27T03:26:34.562Z,8.50
2023-03-27T03:29:08.285Z,8.20
2023-03-27T03:31:45.229Z,8.00
2023-03-27T03:34:22.770Z,8.40
2023-03-27T03:36:56.622Z,8.30
2023-03-27T03:39:30.329Z,8.50
2023-03-27T03:42:04.337Z,8.00
2023-03-27T03:44:38.868Z,8.50
2023-03-27T03:47:12.450Z,8.00
2023-03-27T03:49:46.026Z,9.00
2023-03-27T03:52:19.977Z,9.80
2023-03-27T03:54:54.079Z,9.50
2023-03-27T03:57:29.049Z,8.40
2023-03-27T04:00:07.608Z,8.80
2023-03-27T04:02:42.041Z,8.70
2023-03-27T04:05:16.219Z,9.40
2023-03-27T04:07:51.792Z,8.80
2023-03-27T04:10:25.605Z,9.00
2023-03-27T04:13:00.663Z,8.90
2023-03-27T04:15:34.337Z,7.70
2023-03-27T04:18:09.899Z,7.60
2023-03-27T04:20:44.426Z,7.50
2023-03-27T04:23:19.265Z,8.30
2023-03-27T04:25:54.216Z,7.50
2023-03-27T04:28:28.291Z,9.20
2023-03-27T04:31:07.054Z,7.40
2023-03-27T04:33:47.050Z,7.40
2023-03-27T04:36:24.535Z,8.80
2023-03-27T04:38:58.586Z,8.00
2023-03-27T04:41:33.185Z,7.90
2023-03-27T04:44:09.727Z,7.40
2023-03-27T04:46:43.668Z,8.50
2023-03-27T04:49:19.976Z,8.90
2023-03-27T04:51:54.225Z,8.00
2023-03-27T04:54:27.951Z,9.20
2023-03-27T04:57:03.911Z,7.30
2023-03-27T04:59:37.918Z,7.70
2023-03-27T05:02:13.451Z,8.30
2023-03-27T05:04:48.854Z,7.30
2023-03-27T05:07:23.594Z,7.00
2023-03-27T05:09:58.699Z,7.70
2023-03-27T05:12:33.731Z,7.10
2023-03-27T05:15:09.635Z,6.60
2023-03-27T05:17:44.503Z,6.90
2023-03-27T05:20:19.741Z,7.00
2023-03-27T05:22:56.708Z,6.30
2023-03-27T05:28:04.999Z,6.60
2023-03-27T05:30:38.761Z,5.70
2023-03-27T05:33:14.604Z,5.10
2023-03-27T05:35:49.870Z,4.30
2023-03-27T05:38:25.226Z,3.90
2023-03-27T05:41:00.201Z,3.70
2023-03-27T05:43:34.278Z,4.20
2023-03-27T05:46:08.729Z,4.20
2023-03-27T05:48:43.476Z,4.40
2023-03-27T05:51:17.989Z,3.40
2023-03-27T05:53:52.215Z,3.90
2023-03-27T05:56:26.493Z,3.90
2023-03-27T05:59:00.136Z,2.80
2023-03-27T06:01:35.576Z,3.10
2023-03-27T06:04:09.983Z,4.00
2023-03-27T06:06:44.496Z,2.40
2023-03-27T06:09:18.332Z,2.10
2023-03-27T06:11:54.525Z,2.70
2023-03-27T06:14:32.267Z,3.50
2023-03-27T06:17:07.759Z,2.80
2023-03-27T06:19:43.128Z,3.00
2023-03-27T06:22:19.427Z,1.40
2023-03-27T06:24:55.277Z,1.40
2023-03-27T06:27:32.199Z,1.50
2023-03-27T06:30:11.636Z,1.70
2023-03-27T06:32:49.976Z,1.20
2023-03-27T06:35:24.398Z,2.10
2023-03-27T06:38:00.879Z,1.50
2023-03-27T06:40:37.225Z,1.60
2023-03-27T06:43:12.286Z,1.20
2023-03-27T06:45:49.505Z,1.60
2023-03-27T06:48:24.769Z,2.00
2023-03-27T06:50:58.834Z,2.30
2023-03-27T06:53:37.874Z,1.80
2023-03-27T06:56:12.880Z,1.40
2023-03-27T06:58:46.989Z,1.60
2023-03-27T07:01:20.819Z,1.40
2023-03-27T07:03:55.763Z,1.50
2023-03-27T07:06:29.764Z,1.10
2023-03-27T07:09:04.260Z,1.20
2023-03-27T07:11:38.006Z,1.10
2023-03-27T07:14:14.362Z,2.00
2023-03-27T07:16:48.488Z,1.30
2023-03-27T07:19:22.989Z,1.50
2023-03-27T07:21:57.948Z,0.80
2023-03-27T07:24:32.008Z,0.40
2023-03-27T07:27:06.554Z,1.50
2023-03-27T07:29:40.862Z,1.30
2023-03-27T07:32:22.316Z,1.00
2023-03-27T07:35:06.637Z,0.80
2023-03-27T07:37:41.395Z,0.80
2023-03-27T07:40:29.507Z,1.50
2023-03-27T07:43:11.856Z,1.60
2023-03-27T07:45:46.502Z,0.80
2023-03-27T07:48:21.956Z,1.10
2023-03-27T07:51:10.798Z,0.70
2023-03-27T07:53:49.749Z,0.70
2023-03-27T07:56:23.887Z,0.50
2023-03-27T07:58:58.186Z,0.80
2023-03-27T08:01:36.928Z,1.20
2023-03-27T08:04:11.593Z,0.80
2023-03-27T08:06:45.480Z,0.70
2023-03-27T08:09:19.299Z,0.70
2023-03-27T08:11:53.480Z,0.60
2023-03-27T08:14:27.876Z,0.60
2023-03-27T08:17:14.484Z,0.60
2023-03-27T08:19:49.209Z,0.60
2023-03-27T08:22:23.135Z,0.50
2023-03-27T08:24:57.976Z,0.50
2023-03-27T08:27:32.610Z,0.60
2023-03-27T08:30:07.274Z,0.60
2023-03-27T08:32:42.654Z,0.70
2023-03-27T08:35:16.627Z,0.80
2023-03-27T08:37:50.525Z,0.90
2023-03-27T08:40:28.519Z,0.90
2023-03-27T08:43:07.446Z,0.80
2023-03-27T08:45:47.315Z,0.30
2023-03-27T08:48:23.770Z,0.50
2023-03-27T08:50:58.981Z,0.30
2023-03-27T08:53:42.065Z,0.30
2023-03-27T08:56:17.534Z,0.40
2023-03-27T08:58:52.205Z,0.40
2023-03-27T09:01:31.649Z,0.40
2023-03-27T09:04:34.534Z,0.40
2023-03-27T09:07:38.573Z,0.60
2023-03-27T09:10:44.303Z,1.20
2023-03-27T09:13:29.025Z,0.80
2023-03-27T09:16:08.494Z,0.50
2023-03-27T09:18:56.463Z,0.70
2023-03-27T09:21:37.718Z,0.50
2023-03-27T09:24:18.628Z,0.80
2023-03-27T09:27:06.377Z,0.70
2023-03-27T09:29:43.834Z,1.10
2023-03-27T09:32:20.183Z,0.70
2023-03-27T09:34:57.718Z,1.00
2023-03-27T09:37:31.950Z,0.60
2023-03-27T09:40:13.366Z,0.50
2023-03-27T09:42:48.714Z,1.00
2023-03-27T09:45:26.094Z,0.90
2023-03-27T09:48:04.527Z,0.30
2023-03-27T09:50:43.263Z,0.40
2023-03-27T09:53:21.486Z,0.30
2023-03-27T09:56:03.122Z,0.30
2023-03-27T09:58:42.079Z,0.80
2023-03-27T10:01:28.680Z,0.60
2023-03-27T10:04:03.399Z,0.60
2023-03-27T10:06:42.324Z,0.50
2023-03-27T10:09:36.046Z,0.70
2023-03-27T10:12:21.300Z,0.50
2023-03-27T10:14:56.103Z,0.30
2023-03-27T10:17:36.619Z,1.30
2023-03-27T10:26:31.867Z,1.50
2023-03-27T10:29:23.830Z,0.50
2023-03-27T10:32:00.527Z,0.60
2023-03-27T10:34:42.832Z,0.40
2023-03-27T10:37:31.493Z,0.70
2023-03-27T10:40:10.159Z,0.20
2023-03-27T10:42:45.161Z,0.60
2023-03-27T10:45:22.386Z,0.90
2023-03-27T10:50:32.616Z,1.80
2023-03-27T10:53:11.596Z,0.50
2023-03-27T10:55:57.235Z,0.30
2023-03-27T10:58:39.509Z,2.20
2023-03-27T11:01:18.079Z,1.00
2023-03-27T12:13:08.025Z,0.70
2023-03-27T12:15:52.643Z,0.60
2023-03-27T12:18:36.327Z,1.00
2023-03-27T12:21:20.379Z,0.80
2023-03-27T12:24:16.526Z,0.80
2023-03-27T12:27:05.083Z,1.20
2023-03-27T12:29:45.542Z,1.40
2023-03-27T12:32:30.333Z,0.90
2023-03-27T12:35:07.197Z,1.30
2023-03-27T12:40:29.108Z,1.40
2023-03-27T12:43:27.205Z,1.00
2023-03-27T12:46:16.316Z,0.60
2023-03-27T12:49:34.151Z,0.70
2023-03-27T12:52:15.071Z,1.60
2023-03-27T12:55:09.372Z,1.80
2023-03-27T13:04:16.476Z,3.20
2023-03-27T13:06:53.373Z,1.30
2023-03-27T13:12:29.404Z,1.10
2023-03-27T13:15:19.963Z,0.60
2023-03-27T13:18:29.480Z,0.80
2023-03-27T13:21:09.512Z,0.50
2023-03-27T13:23:55.523Z,0.90
2023-03-27T13:26:36.275Z,1.10
2023-03-27T13:29:15.842Z,1.10
2023-03-27T13:32:03.641Z,0.80
2023-03-27T13:34:41.967Z,1.40
2023-03-27T13:37:48.710Z,1.30
2023-03-27T13:40:26.491Z,1.50
2023-03-27T13:43:02.714Z,0.80
2023-03-27T13:45:41.388Z,1.50
2023-03-27T13:48:37.086Z,1.00
2023-03-27T13:51:45.464Z,0.80
2023-03-27T13:54:45.096Z,1.30
2023-03-27T13:57:34.345Z,0.90
2023-03-27T14:00:25.070Z,1.00
2023-03-27T14:03:26.347Z,1.50
2023-03-27T14:06:43.516Z,1.40
2023-03-27T14:09:18.883Z,0.70
2023-03-27T14:12:03.449Z,0.80
2023-03-27T14:14:50.657Z,0.90
2023-03-27T14:17:54.920Z,0.60
2023-03-27T14:20:30.033Z,0.60
2023-03-27T14:23:11.366Z,0.40
2023-03-27T14:25:47.472Z,0.50
2023-03-27T14:28:31.519Z,1.00
2023-03-27T14:31:16.988Z,0.50
2023-03-27T14:33:55.784Z,0.50
2023-03-27T14:36:32.457Z,0.80
2023-03-27T14:39:08.304Z,0.50
2023-03-27T14:41:47.137Z,0.40
2023-03-27T14:44:21.149Z,0.70
2023-03-27T14:47:20.458Z,0.40
2023-03-27T14:49:58.611Z,0.60
2023-03-27T14:52:34.825Z,0.70
2023-03-27T14:55:09.959Z,0.60
2023-03-27T14:57:44.337Z,0.60
2023-03-27T15:00:23.673Z,0.60
2023-03-27T15:03:01.136Z,0.80
2023-03-27T15:05:32.760Z,0.50
2023-03-27T15:08:15.583Z,0.40
2023-03-27T15:10:53.614Z,0.70
2023-03-27T15:13:27.110Z,0.60
2023-03-27T15:16:02.716Z,1.00
2023-03-27T15:18:37.983Z,0.70
2023-03-27T15:21:14.122Z,1.00
2023-03-27T15:24:00.937Z,0.90
2023-03-27T15:26:34.955Z,0.60
2023-03-27T15:29:13.940Z,0.80
2023-03-27T15:31:52.394Z,1.00
2023-03-27T15:34:33.918Z,0.50
2023-03-27T15:37:11.067Z,0.60
2023-03-27T15:40:06.886Z,0.90
2023-03-27T15:42:47.933Z,0.50
2023-03-27T15:45:30.241Z,0.80
2023-03-27T15:48:06.370Z,0.90
2023-03-27T15:50:43.491Z,0.90
2023-03-27T15:53:31.927Z,0.80
2023-03-27T15:56:05.713Z,1.00
2023-03-27T15:58:49.346Z,1.20
2023-03-27T16:01:24.215Z,0.90
2023-03-27T16:03:57.428Z,0.70
2023-03-27T16:06:33.665Z,0.90
2023-03-27T16:09:25.719Z,0.70
2023-03-27T16:11:56.937Z,0.90
2023-03-27T16:14:32.471Z,0.90
2023-03-27T16:17:22.162Z,0.70
2023-03-27T16:19:54.580Z,0.50
2023-03-27T16:22:28.466Z,0.50
2023-03-27T16:25:00.182Z,0.60
2023-03-27T16:27:42.042Z,1.10
2023-03-27T16:30:23.472Z,1.00
2023-03-27T16:32:57.112Z,1.20
2023-03-27T16:35:27.931Z,0.50
2023-03-27T16:37:59.246Z,1.00
2023-03-27T16:40:31.516Z,1.20
2023-03-27T16:43:05.304Z,0.80
2023-03-27T16:45:55.484Z,1.00
2023-03-27T16:48:27.897Z,1.00
2023-03-27T16:50:59.146Z,1.00
2023-03-27T16:53:31.715Z,1.00
2023-03-27T16:56:06.344Z,1.40
2023-03-27T16:58:37.348Z,1.60
2023-03-27T17:01:11.945Z,0.90
2023-03-27T17:03:48.072Z,1.00
2023-03-27T17:06:19.126Z,1.50
2023-03-27T17:08:56.196Z,1.00
2023-03-27T17:11:26.857Z,1.10
2023-03-27T17:14:01.054Z,1.30
2023-03-27T17:16:34.933Z,1.30
2023-03-27T17:19:10.699Z,1.60
2023-03-27T17:21:41.390Z,1.80
2023-03-27T17:24:16.622Z,1.50
2023-03-27T17:26:50.398Z,2.10
2023-03-27T17:29:23.604Z,1.40
2023-03-27T17:32:04.862Z,2.30
2023-03-27T17:34:38.462Z,1.70
2023-03-27T17:37:12.247Z,1.50
2023-03-27T17:39:45.873Z,1.50
2023-03-27T17:42:29.782Z,2.30
2023-03-27T17:45:05.519Z,2.30
2023-03-27T17:47:46.168Z,1.50
2023-03-27T17:50:23.540Z,2.70
2023-03-27T17:52:54.756Z,2.40
2023-03-27T17:55:30.466Z,2.30
2023-03-27T17:58:16.091Z,2.10
2023-03-27T18:00:49.866Z,2.40
2023-03-27T18:03:23.777Z,1.60
2023-03-27T18:05:55.800Z,2.20
2023-03-27T18:08:30.651Z,2.80
2023-03-27T18:11:09.400Z,2.30
2023-03-27T18:13:42.552Z,2.30
2023-03-27T18:16:13.536Z,1.90
2023-03-27T18:18:47.924Z,3.20
2023-03-27T18:21:23.623Z,2.70
2023-03-27T18:24:01.713Z,2.40
2023-03-27T18:26:35.490Z,2.60
2023-03-27T18:29:24.174Z,2.90
2023-03-27T18:31:56.640Z,2.70
2023-03-27T18:34:27.749Z,3.00
2023-03-27T18:36:59.843Z,2.30
2023-03-27T18:39:38.945Z,3.40
2023-03-27T18:42:09.825Z,3.20
2023-03-27T18:44:41.562Z,3.20
2023-03-27T18:47:15.516Z,2.50
2023-03-27T18:49:51.224Z,3.00
2023-03-27T18:52:33.760Z,2.80
2023-03-27T18:55:05.205Z,2.90
2023-03-27T18:57:37.979Z,2.60
2023-03-27T19:00:22.502Z,2.40
2023-03-27T19:03:05.853Z,3.60
2023-03-27T19:05:49.958Z,2.60
2023-03-27T19:08:33.030Z,2.90
2023-03-27T19:11:22.975Z,2.70
2023-03-27T19:13:56.466Z,2.50
2023-03-27T19:16:33.429Z,3.30
2023-03-27T19:19:06.007Z,3.20
2023-03-27T19:21:44.148Z,2.50
2023-03-27T19:24:28.099Z,2.40
2023-03-27T19:27:24.222Z,2.50
2023-03-27T19:30:02.939Z,2.50
2023-03-27T19:32:43.838Z,2.20
2023-03-27T19:35:20.741Z,1.70
2023-03-27T19:37:52.305Z,2.00
2023-03-27T19:40:32.806Z,1.70
2023-03-27T19:43:10.001Z,1.90
2023-03-27T19:45:40.357Z,1.60
2023-03-27T19:48:20.582Z,2.10
2023-03-27T19:50:57.567Z,2.20
2023-03-27T19:53:38.943Z,2.10
2023-03-27T19:56:10.788Z,2.50
2023-03-27T19:58:44.338Z,1.80
2023-03-27T20:01:19.392Z,3.10
2023-03-27T20:03:57.758Z,2.50
2023-03-27T20:06:31.294Z,2.00
2023-03-27T20:09:03.659Z,3.00
2023-03-27T20:11:37.515Z,2.00
2023-03-27T20:14:12.532Z,2.40
2023-03-27T20:16:48.354Z,2.70
2023-03-27T20:20:02.638Z,1.90
2023-03-27T20:22:57.523Z,2.00
2023-03-27T20:25:34.398Z,2.50
2023-03-27T20:28:12.371Z,2.20
2023-03-27T20:30:55.188Z,2.20
2023-03-27T20:33:50.094Z,1.60
2023-03-27T20:36:28.215Z,1.50
2023-03-27T20:39:06.856Z,1.80
2023-03-27T20:41:43.238Z,1.90
2023-03-27T20:44:34.943Z,1.60
2023-03-27T20:47:10.584Z,1.50
2023-03-27T20:49:47.088Z,1.20
2023-03-27T20:52:19.670Z,2.30
2023-03-27T20:54:51.630Z,2.20
2023-03-27T20:57:23.866Z,1.60
2023-03-27T20:59:54.610Z,1.50
2023-03-27T21:02:25.359Z,1.40
2023-03-27T21:04:56.313Z,1.20
2023-03-27T21:07:31.589Z,1.30
2023-03-27T21:10:02.739Z,1.80
2023-03-27T21:12:36.696Z,1.90
2023-03-27T21:15:09.794Z,2.00
2023-03-27T21:17:43.378Z,2.50
2023-03-27T21:20:14.783Z,2.50
2023-03-27T21:22:45.919Z,2.80
2023-03-27T21:25:16.256Z,2.30
2023-03-27T21:27:57.258Z,2.60
2023-03-27T21:30:47.310Z,1.90
2023-03-27T21:33:19.812Z,2.60
2023-03-27T21:35:50.637Z,2.40
2023-03-27T21:38:23.641Z,2.70
2023-03-27T21:40:55.348Z,2.40
2023-03-27T21:43:26.610Z,3.10
2023-03-27T21:45:58.796Z,2.50
2023-03-27T21:48:30.762Z,2.80
2023-03-27T21:57:36.134Z,2.50
2023-03-27T22:00:08.494Z,3.70
2023-03-27T22:02:39.038Z,3.00
2023-03-27T22:05:10.883Z,2.40
2023-03-27T22:07:41.692Z,2.00
2023-03-27T22:10:13.501Z,2.20
2023-03-27T22:12:44.280Z,2.00
2023-03-27T22:15:17.072Z,2.60
2023-03-27T22:17:50.442Z,2.20
2023-03-27T22:20:24.087Z,3.00
2023-03-27T22:22:55.161Z,2.60
2023-03-27T22:25:27.413Z,2.20
2023-03-27T22:28:01.321Z,2.70
2023-03-27T22:30:32.429Z,2.20
2023-03-27T22:33:03.129Z,2.50
2023-03-27T22:35:33.983Z,2.30
2023-03-27T22:38:04.451Z,2.90
2023-03-27T22:40:35.131Z,2.80
2023-03-27T22:43:05.630Z,2.20
2023-03-27T22:45:38.170Z,2.90
2023-03-27T22:48:09.689Z,2.50
2023-03-27T22:50:40.077Z,2.80
2023-03-27T22:53:10.814Z,2.30
2023-03-27T22:55:41.525Z,1.80
2023-03-27T22:58:12.208Z,2.50
2023-03-27T23:00:43.101Z,2.80
2023-03-27T23:03:13.736Z,2.30
2023-03-27T23:05:46.779Z,2.50
2023-03-27T23:08:19.446Z,3.20
2023-03-27T23:10:56.440Z,3.30
2023-03-27T23:13:27.704Z,3.20
2023-03-27T23:15:58.109Z,3.10
2023-03-27T23:18:29.100Z,2.20
2023-03-27T23:21:01.200Z,2.70
2023-03-27T23:23:33.550Z,2.20
2023-03-27T23:26:04.773Z,2.70
2023-03-27T23:28:38.705Z,3.10
2023-03-27T23:31:13.488Z,2.70
2023-03-27T23:33:45.732Z,2.80
2023-03-27T23:36:17.488Z,2.80
2023-03-27T23:38:48.064Z,3.10
2023-03-27T23:41:19.093Z,2.90
2023-03-27T23:43:49.733Z,4.00
2023-03-27T23:46:20.169Z,3.20
2023-03-27T23:48:50.922Z,2.60
2023-03-27T23:51:21.295Z,3.60
2023-03-27T23:53:51.728Z,3.10
2023-03-27T23:56:22.096Z,3.10
2023-03-27T23:58:52.516Z,3.20
